sensor_id;sensor_type;location;lat;lon;timestamp;pressure;altitude;pressure_sealevel;temperature;humidity
74708;BME280;63360;50.104;8.074;2022-12-13T00:01:32;96628.03;;;-4.73;100.00
74708;BME280;63360;50.104;8.074;2022-12-13T00:04:01;96617.34;;;-4.75;100.00
74708;BME280;63360;50.104;8.074;2022-12-13T00:06:28;96614.13;;;-4.71;100.00
74708;BME280;63360;50.104;8.074;2022-12-13T00:08:56;96614.25;;;-4.77;100.00
74708;BME280;63360;50.104;8.074;2022-12-13T00:11:23;96601.13;;;-4.74;100.00
74708;BME280;63360;50.104;8.074;2022-12-13T00:13:50;96618.78;;;-4.79;100.00
74708;BME280;63360;50.104;8.074;2022-12-13T00:16:21;96608.75;;;-4.86;100.00
74708;BME280;63360;50.104;8.074;2022-12-13T00:18:53;96602.34;;;-4.88;100.00
74708;BME280;63360;50.104;8.074;2022-12-13T00:21:22;96607.19;;;-4.99;100.00
74708;BME280;63360;50.104;8.074;2022-12-13T00:23:49;96600.81;;;-5.01;100.00
74708;BME280;63360;50.104;8.074;2022-12-13T00:26:21;96610.50;;;-4.98;100.00
74708;BME280;63360;50.104;8.074;2022-12-13T00:28:48;96597.16;;;-4.94;100.00
74708;BME280;63360;50.104;8.074;2022-12-13T00:31:17;96605.44;;;-4.75;100.00
74708;BME280;63360;50.104;8.074;2022-12-13T00:34:04;96597.59;;;-4.97;100.00
74708;BME280;63360;50.104;8.074;2022-12-13T00:36:30;96600.25;;;-4.80;100.00
74708;BME280;63360;50.104;8.074;2022-12-13T00:38:56;96602.44;;;-4.83;100.00
74708;BME280;63360;50.104;8.074;2022-12-13T00:41:28;96598.25;;;-4.90;100.00
74708;BME280;63360;50.104;8.074;2022-12-13T00:43:55;96584.56;;;-5.00;100.00
74708;BME280;63360;50.104;8.074;2022-12-13T00:46:22;96583.84;;;-5.01;100.00
74708;BME280;63360;50.104;8.074;2022-12-13T00:48:51;96588.78;;;-4.94;100.00
74708;BME280;63360;50.104;8.074;2022-12-13T00:51:18;96586.38;;;-5.01;100.00
74708;BME280;63360;50.104;8.074;2022-12-13T00:53:46;96579.84;;;-5.08;100.00
74708;BME280;63360;50.104;8.074;2022-12-13T00:56:15;96587.13;;;-5.12;100.00
74708;BME280;63360;50.104;8.074;2022-12-13T00:58:42;96578.31;;;-5.09;100.00
74708;BME280;63360;50.104;8.074;2022-12-13T01:01:19;96564.50;;;-5.13;100.00
74708;BME280;63360;50.104;8.074;2022-12-13T01:03:46;96565.41;;;-5.19;100.00
74708;BME280;63360;50.104;8.074;2022-12-13T01:06:35;96576.09;;;-5.17;100.00
74708;BME280;63360;50.104;8.074;2022-12-13T01:09:04;96566.59;;;-5.33;100.00
74708;BME280;63360;50.104;8.074;2022-12-13T01:11:30;96564.16;;;-5.40;100.00
74708;BME280;63360;50.104;8.074;2022-12-13T01:13:57;96557.13;;;-5.38;100.00
74708;BME280;63360;50.104;8.074;2022-12-13T01:16:23;96572.44;;;-5.21;100.00
74708;BME280;63360;50.104;8.074;2022-12-13T01:18:50;96585.34;;;-5.23;100.00
74708;BME280;63360;50.104;8.074;2022-12-13T01:21:17;96575.31;;;-5.29;100.00
74708;BME280;63360;50.104;8.074;2022-12-13T01:23:45;96572.47;;;-5.33;100.00
74708;BME280;63360;50.104;8.074;2022-12-13T01:26:16;96575.00;;;-5.33;100.00
74708;BME280;63360;50.104;8.074;2022-12-13T01:28:43;96584.47;;;-5.28;100.00
74708;BME280;63360;50.104;8.074;2022-12-13T01:31:12;96583.22;;;-5.37;100.00
74708;BME280;63360;50.104;8.074;2022-12-13T01:33:39;96569.91;;;-5.44;100.00
74708;BME280;63360;50.104;8.074;2022-12-13T01:36:08;96583.81;;;-5.35;100.00
74708;BME280;63360;50.104;8.074;2022-12-13T01:38:36;96576.28;;;-5.54;100.00
74708;BME280;63360;50.104;8.074;2022-12-13T01:41:04;96571.22;;;-5.54;100.00
74708;BME280;63360;50.104;8.074;2022-12-13T01:46:13;96581.78;;;-5.45;100.00
74708;BME280;63360;50.104;8.074;2022-12-13T01:48:44;96564.41;;;-5.41;100.00
74708;BME280;63360;50.104;8.074;2022-12-13T01:51:15;96561.84;;;-5.41;100.00
74708;BME280;63360;50.104;8.074;2022-12-13T01:53:43;96573.66;;;-5.24;100.00
74708;BME280;63360;50.104;8.074;2022-12-13T01:56:17;96579.84;;;-5.20;100.00
74708;BME280;63360;50.104;8.074;2022-12-13T01:58:46;96571.13;;;-5.24;100.00
74708;BME280;63360;50.104;8.074;2022-12-13T02:01:13;96562.63;;;-5.29;100.00
74708;BME280;63360;50.104;8.074;2022-12-13T02:03:40;96567.19;;;-5.20;100.00
74708;BME280;63360;50.104;8.074;2022-12-13T02:06:18;96561.56;;;-5.22;100.00
74708;BME280;63360;50.104;8.074;2022-12-13T02:08:47;96547.13;;;-5.33;100.00
74708;BME280;63360;50.104;8.074;2022-12-13T02:11:14;96553.63;;;-5.25;100.00
74708;BME280;63360;50.104;8.074;2022-12-13T02:13:41;96550.06;;;-5.36;100.00
74708;BME280;63360;50.104;8.074;2022-12-13T02:19:22;96566.84;;;-5.23;100.00
74708;BME280;63360;50.104;8.074;2022-12-13T02:22:39;96567.19;;;-5.20;100.00
74708;BME280;63360;50.104;8.074;2022-12-13T02:25:36;96563.63;;;-5.19;100.00
74708;BME280;63360;50.104;8.074;2022-12-13T02:28:15;96558.13;;;-5.27;100.00
74708;BME280;63360;50.104;8.074;2022-12-13T02:33:47;96561.94;;;-5.48;100.00
74708;BME280;63360;50.104;8.074;2022-12-13T02:36:27;96562.41;;;-5.51;100.00
74708;BME280;63360;50.104;8.074;2022-12-13T02:39:10;96549.16;;;-5.65;100.00
74708;BME280;63360;50.104;8.074;2022-12-13T02:42:16;96549.59;;;-5.68;100.00
74708;BME280;63360;50.104;8.074;2022-12-13T02:44:56;96559.50;;;-5.66;100.00
74708;BME280;63360;50.104;8.074;2022-12-13T02:47:25;96550.69;;;-5.75;100.00
74708;BME280;63360;50.104;8.074;2022-12-13T02:49:59;96547.91;;;-5.74;100.00
74708;BME280;63360;50.104;8.074;2022-12-13T02:52:28;96539.44;;;-5.79;100.00
74708;BME280;63360;50.104;8.074;2022-12-13T02:54:56;96540.31;;;-5.85;100.00
74708;BME280;63360;50.104;8.074;2022-12-13T02:57:33;96551.44;;;-5.86;100.00
74708;BME280;63360;50.104;8.074;2022-12-13T03:00:11;96544.72;;;-5.92;100.00
74708;BME280;63360;50.104;8.074;2022-12-13T03:03:00;96548.47;;;-5.83;100.00
74708;BME280;63360;50.104;8.074;2022-12-13T03:05:48;96535.47;;;-5.87;100.00
74708;BME280;63360;50.104;8.074;2022-12-13T03:11:21;96552.91;;;-5.67;100.00
74708;BME280;63360;50.104;8.074;2022-12-13T03:14:00;96550.59;;;-5.57;100.00
74708;BME280;63360;50.104;8.074;2022-12-13T03:16:33;96538.28;;;-5.54;100.00
74708;BME280;63360;50.104;8.074;2022-12-13T03:19:05;96546.44;;;-5.52;100.00
74708;BME280;63360;50.104;8.074;2022-12-13T03:21:44;96546.09;;;-5.43;100.00
74708;BME280;63360;50.104;8.074;2022-12-13T03:24:18;96549.84;;;-5.34;100.00
74708;BME280;63360;50.104;8.074;2022-12-13T03:26:46;96540.16;;;-5.26;100.00
74708;BME280;63360;50.104;8.074;2022-12-13T03:29:13;96532.88;;;-5.34;100.00
74708;BME280;63360;50.104;8.074;2022-12-13T03:31:49;96525.50;;;-5.35;99.89
74708;BME280;63360;50.104;8.074;2022-12-13T03:34:16;96538.50;;;-5.20;100.00
74708;BME280;63360;50.104;8.074;2022-12-13T03:36:50;96524.19;;;-5.26;99.45
74708;BME280;63360;50.104;8.074;2022-12-13T03:39:17;96522.66;;;-5.27;100.00
74708;BME280;63360;50.104;8.074;2022-12-13T03:41:43;96538.94;;;-5.23;99.73
74708;BME280;63360;50.104;8.074;2022-12-13T03:44:10;96544.13;;;-5.30;99.54
74708;BME280;63360;50.104;8.074;2022-12-13T03:46:36;96533.53;;;-5.27;99.52
74708;BME280;63360;50.104;8.074;2022-12-13T03:49:02;96520.88;;;-5.38;98.72
74708;BME280;63360;50.104;8.074;2022-12-13T03:51:29;96540.72;;;-5.24;99.02
74708;BME280;63360;50.104;8.074;2022-12-13T03:53:55;96532.56;;;-5.26;98.26
74708;BME280;63360;50.104;8.074;2022-12-13T03:56:22;96542.69;;;-5.26;98.90
74708;BME280;63360;50.104;8.074;2022-12-13T03:58:48;96534.75;;;-5.29;99.45
74708;BME280;63360;50.104;8.074;2022-12-13T04:01:16;96541.28;;;-5.22;99.20
74708;BME280;63360;50.104;8.074;2022-12-13T04:03:44;96541.47;;;-5.23;100.00
74708;BME280;63360;50.104;8.074;2022-12-13T04:06:12;96542.25;;;-5.23;99.81
74708;BME280;63360;50.104;8.074;2022-12-13T04:08:50;96533.00;;;-5.29;99.46
74708;BME280;63360;50.104;8.074;2022-12-13T04:11:17;96547.09;;;-5.21;98.88
74708;BME280;63360;50.104;8.074;2022-12-13T04:14:09;96535.53;;;-5.29;100.00
74708;BME280;63360;50.104;8.074;2022-12-13T04:16:36;96531.13;;;-5.33;99.75
74708;BME280;63360;50.104;8.074;2022-12-13T04:19:02;96523.31;;;-5.43;100.00
74708;BME280;63360;50.104;8.074;2022-12-13T04:21:28;96530.13;;;-5.44;100.00
74708;BME280;63360;50.104;8.074;2022-12-13T04:23:55;96528.38;;;-5.43;99.59
74708;BME280;63360;50.104;8.074;2022-12-13T04:26:26;96528.56;;;-5.45;99.77
74708;BME280;63360;50.104;8.074;2022-12-13T04:28:53;96543.16;;;-5.40;99.95
74708;BME280;63360;50.104;8.074;2022-12-13T04:31:20;96532.13;;;-5.46;100.00
74708;BME280;63360;50.104;8.074;2022-12-13T04:33:46;96531.44;;;-5.53;100.00
74708;BME280;63360;50.104;8.074;2022-12-13T04:36:13;96540.94;;;-5.48;100.00
74708;BME280;63360;50.104;8.074;2022-12-13T04:38:58;96532.97;;;-5.52;100.00
74708;BME280;63360;50.104;8.074;2022-12-13T04:41:26;96540.34;;;-5.51;100.00
74708;BME280;63360;50.104;8.074;2022-12-13T04:43:59;96533.31;;;-5.60;100.00
74708;BME280;63360;50.104;8.074;2022-12-13T04:46:26;96553.91;;;-5.45;100.00
74708;BME280;63360;50.104;8.074;2022-12-13T04:48:52;96560.00;;;-5.46;100.00
74708;BME280;63360;50.104;8.074;2022-12-13T04:51:18;96553.25;;;-5.52;100.00
74708;BME280;63360;50.104;8.074;2022-12-13T04:53:45;96542.47;;;-5.59;100.00
74708;BME280;63360;50.104;8.074;2022-12-13T04:56:11;96550.94;;;-5.54;100.00
74708;BME280;63360;50.104;8.074;2022-12-13T04:58:38;96540.66;;;-5.59;100.00
74708;BME280;63360;50.104;8.074;2022-12-13T05:01:08;96549.75;;;-5.51;100.00
74708;BME280;63360;50.104;8.074;2022-12-13T05:03:37;96539.56;;;-5.63;100.00
74708;BME280;63360;50.104;8.074;2022-12-13T05:06:05;96528.00;;;-5.59;100.00
74708;BME280;63360;50.104;8.074;2022-12-13T05:08:51;96531.63;;;-5.66;100.00
74708;BME280;63360;50.104;8.074;2022-12-13T05:11:18;96539.78;;;-5.64;100.00
74708;BME280;63360;50.104;8.074;2022-12-13T05:13:48;96530.75;;;-5.72;100.00
74708;BME280;63360;50.104;8.074;2022-12-13T05:16:15;96530.41;;;-5.75;100.00
74708;BME280;63360;50.104;8.074;2022-12-13T05:18:41;96536.16;;;-5.68;100.00
74708;BME280;63360;50.104;8.074;2022-12-13T05:21:10;96534.81;;;-5.71;100.00
74708;BME280;63360;50.104;8.074;2022-12-13T05:23:37;96540.56;;;-5.75;100.00
74708;BME280;63360;50.104;8.074;2022-12-13T05:26:04;96538.34;;;-5.72;100.00
74708;BME280;63360;50.104;8.074;2022-12-13T05:28:30;96519.03;;;-5.84;100.00
74708;BME280;63360;50.104;8.074;2022-12-13T05:31:04;96527.44;;;-5.84;100.00
74708;BME280;63360;50.104;8.074;2022-12-13T05:33:50;96524.03;;;-5.89;100.00
74708;BME280;63360;50.104;8.074;2022-12-13T05:36:16;96530.41;;;-5.87;100.00
74708;BME280;63360;50.104;8.074;2022-12-13T05:38:43;96527.44;;;-5.84;100.00
74708;BME280;63360;50.104;8.074;2022-12-13T05:41:16;96515.31;;;-5.93;100.00
74708;BME280;63360;50.104;8.074;2022-12-13T05:43:44;96517.63;;;-5.92;100.00
74708;BME280;63360;50.104;8.074;2022-12-13T05:46:13;96518.53;;;-5.86;100.00
74708;BME280;63360;50.104;8.074;2022-12-13T05:48:40;96530.63;;;-5.77;100.00
74708;BME280;63360;50.104;8.074;2022-12-13T05:51:08;96516.84;;;-5.92;100.00
74708;BME280;63360;50.104;8.074;2022-12-13T05:53:38;96523.00;;;-6.00;100.00
74708;BME280;63360;50.104;8.074;2022-12-13T05:56:05;96516.25;;;-6.18;100.00
74708;BME280;63360;50.104;8.074;2022-12-13T05:58:32;96528.59;;;-6.09;100.00
74708;BME280;63360;50.104;8.074;2022-12-13T06:01:10;96522.94;;;-6.23;100.00
74708;BME280;63360;50.104;8.074;2022-12-13T06:03:37;96519.28;;;-6.27;100.00
74708;BME280;63360;50.104;8.074;2022-12-13T06:06:05;96521.81;;;-6.27;100.00
74708;BME280;63360;50.104;8.074;2022-12-13T06:08:32;96510.47;;;-6.36;100.00
74708;BME280;63360;50.104;8.074;2022-12-13T06:11:01;96508.34;;;-6.39;100.00
74708;BME280;63360;50.104;8.074;2022-12-13T06:13:39;96517.47;;;-6.38;100.00
74708;BME280;63360;50.104;8.074;2022-12-13T06:16:09;96514.69;;;-6.48;100.00
74708;BME280;63360;50.104;8.074;2022-12-13T06:18:50;96517.31;;;-6.55;100.00
74708;BME280;63360;50.104;8.074;2022-12-13T06:21:24;96532.59;;;-6.50;100.00
74708;BME280;63360;50.104;8.074;2022-12-13T06:23:50;96524.09;;;-6.37;100.00
74708;BME280;63360;50.104;8.074;2022-12-13T06:26:17;96527.31;;;-6.48;100.00
74708;BME280;63360;50.104;8.074;2022-12-13T06:28:43;96519.97;;;-6.50;100.00
74708;BME280;63360;50.104;8.074;2022-12-13T06:31:10;96518.63;;;-6.52;100.00
74708;BME280;63360;50.104;8.074;2022-12-13T06:33:36;96511.66;;;-6.57;100.00
74708;BME280;63360;50.104;8.074;2022-12-13T06:36:04;96526.75;;;-6.32;100.00
74708;BME280;63360;50.104;8.074;2022-12-13T06:38:31;96520.50;;;-6.48;100.00
74708;BME280;63360;50.104;8.074;2022-12-13T06:41:09;96514.78;;;-6.55;100.00
74708;BME280;63360;50.104;8.074;2022-12-13T06:43:36;96522.50;;;-6.50;100.00
74708;BME280;63360;50.104;8.074;2022-12-13T06:46:03;96527.38;;;-6.37;100.00
74708;BME280;63360;50.104;8.074;2022-12-13T06:48:30;96509.22;;;-6.63;100.00
74708;BME280;63360;50.104;8.074;2022-12-13T06:51:01;96516.94;;;-6.58;100.00
74708;BME280;63360;50.104;8.074;2022-12-13T06:53:28;96527.47;;;-6.43;100.00
74708;BME280;63360;50.104;8.074;2022-12-13T06:55:55;96534.56;;;-6.52;100.00
74708;BME280;63360;50.104;8.074;2022-12-13T06:58:22;96518.56;;;-6.64;100.00
74708;BME280;63360;50.104;8.074;2022-12-13T07:00:49;96530.78;;;-6.61;100.00
74708;BME280;63360;50.104;8.074;2022-12-13T07:03:15;96521.88;;;-6.63;100.00
74708;BME280;63360;50.104;8.074;2022-12-13T07:05:42;96533.59;;;-6.51;100.00
74708;BME280;63360;50.104;8.074;2022-12-13T07:08:08;96527.56;;;-6.68;100.00
74708;BME280;63360;50.104;8.074;2022-12-13T07:10:38;96529.78;;;-6.60;100.00
74708;BME280;63360;50.104;8.074;2022-12-13T07:13:05;96530.28;;;-6.51;100.00
74708;BME280;63360;50.104;8.074;2022-12-13T07:15:32;96528.47;;;-6.62;100.00
74708;BME280;63360;50.104;8.074;2022-12-13T07:17:59;96519.75;;;-6.66;100.00
74708;BME280;63360;50.104;8.074;2022-12-13T07:20:25;96540.06;;;-6.55;100.00
74708;BME280;63360;50.104;8.074;2022-12-13T07:22:51;96525.44;;;-6.53;100.00
74708;BME280;63360;50.104;8.074;2022-12-13T07:25:24;96513.72;;;-6.65;100.00
74708;BME280;63360;50.104;8.074;2022-12-13T07:27:58;96528.00;;;-6.41;100.00
74708;BME280;63360;50.104;8.074;2022-12-13T07:30:29;96520.81;;;-6.56;100.00
74708;BME280;63360;50.104;8.074;2022-12-13T07:32:55;96542.09;;;-6.45;100.00
74708;BME280;63360;50.104;8.074;2022-12-13T07:35:21;96526.97;;;-6.52;100.00
74708;BME280;63360;50.104;8.074;2022-12-13T07:37:48;96527.88;;;-6.46;100.00
74708;BME280;63360;50.104;8.074;2022-12-13T07:40:14;96541.44;;;-6.41;100.00
74708;BME280;63360;50.104;8.074;2022-12-13T07:42:41;96532.56;;;-6.32;100.00
74708;BME280;63360;50.104;8.074;2022-12-13T07:45:13;96541.50;;;-6.29;100.00
74708;BME280;63360;50.104;8.074;2022-12-13T07:47:40;96529.41;;;-6.27;100.00
74708;BME280;63360;50.104;8.074;2022-12-13T07:50:06;96527.72;;;-6.33;100.00
74708;BME280;63360;50.104;8.074;2022-12-13T07:52:53;96530.81;;;-6.31;100.00
74708;BME280;63360;50.104;8.074;2022-12-13T07:55:19;96532.88;;;-6.10;100.00
74708;BME280;63360;50.104;8.074;2022-12-13T07:57:48;96530.31;;;-6.22;100.00
74708;BME280;63360;50.104;8.074;2022-12-13T08:00:15;96536.94;;;-6.09;100.00
74708;BME280;63360;50.104;8.074;2022-12-13T08:02:41;96540.84;;;-5.95;100.00
74708;BME280;63360;50.104;8.074;2022-12-13T08:05:08;96546.38;;;-5.86;100.00
74708;BME280;63360;50.104;8.074;2022-12-13T08:07:52;96543.31;;;-5.88;100.00
74708;BME280;63360;50.104;8.074;2022-12-13T08:10:19;96548.91;;;-5.75;100.00
74708;BME280;63360;50.104;8.074;2022-12-13T08:12:45;96532.84;;;-5.80;100.00
74708;BME280;63360;50.104;8.074;2022-12-13T08:15:12;96529.75;;;-5.71;100.00
74708;BME280;63360;50.104;8.074;2022-12-13T08:17:39;96537.81;;;-5.62;100.00
74708;BME280;63360;50.104;8.074;2022-12-13T08:20:06;96531.75;;;-5.73;100.00
74708;BME280;63360;50.104;8.074;2022-12-13T08:22:32;96534.09;;;-5.60;100.00
74708;BME280;63360;50.104;8.074;2022-12-13T08:25:02;96520.22;;;-5.57;100.00
74708;BME280;63360;50.104;8.074;2022-12-13T08:27:28;96528.34;;;-5.55;100.00
74708;BME280;63360;50.104;8.074;2022-12-13T08:29:54;96531.78;;;-5.49;100.00
74708;BME280;63360;50.104;8.074;2022-12-13T08:32:21;96527.25;;;-5.47;100.00
74708;BME280;63360;50.104;8.074;2022-12-13T08:34:48;96521.22;;;-5.46;100.00
74708;BME280;63360;50.104;8.074;2022-12-13T08:37:15;96514.06;;;-5.38;100.00
74708;BME280;63360;50.104;8.074;2022-12-13T08:39:42;96504.34;;;-5.41;100.00
74708;BME280;63360;50.104;8.074;2022-12-13T08:42:14;96507.22;;;-5.26;100.00
74708;BME280;63360;50.104;8.074;2022-12-13T08:44:49;96507.56;;;-5.22;98.81
74708;BME280;63360;50.104;8.074;2022-12-13T08:47:17;96509.75;;;-5.26;99.15
74708;BME280;63360;50.104;8.074;2022-12-13T08:49:54;96522.88;;;-5.06;98.51
74708;BME280;63360;50.104;8.074;2022-12-13T08:52:30;96514.94;;;-5.09;98.22
74708;BME280;63360;50.104;8.074;2022-12-13T08:54:56;96528.94;;;-5.07;100.00
74708;BME280;63360;50.104;8.074;2022-12-13T08:57:23;96541.59;;;-4.95;100.00
74708;BME280;63360;50.104;8.074;2022-12-13T08:59:49;96544.00;;;-4.88;100.00
74708;BME280;63360;50.104;8.074;2022-12-13T09:02:16;96533.22;;;-4.96;97.84
74708;BME280;63360;50.104;8.074;2022-12-13T09:04:42;96545.88;;;-4.84;95.79
74708;BME280;63360;50.104;8.074;2022-12-13T09:07:09;96540.06;;;-4.84;96.09
74708;BME280;63360;50.104;8.074;2022-12-13T09:09:35;96527.66;;;-4.81;98.60
74708;BME280;63360;50.104;8.074;2022-12-13T09:12:03;96544.09;;;-4.72;96.12
74708;BME280;63360;50.104;8.074;2022-12-13T09:14:37;96554.69;;;-4.63;93.51
74708;BME280;63360;50.104;8.074;2022-12-13T09:17:10;96561.53;;;-4.64;93.11
74708;BME280;63360;50.104;8.074;2022-12-13T09:19:50;96559.53;;;-4.62;93.08
74708;BME280;63360;50.104;8.074;2022-12-13T09:22:24;96568.34;;;-4.53;94.50
74708;BME280;63360;50.104;8.074;2022-12-13T09:25:00;96563.19;;;-4.58;94.17
74708;BME280;63360;50.104;8.074;2022-12-13T09:27:29;96562.78;;;-4.50;92.59
74708;BME280;63360;50.104;8.074;2022-12-13T09:29:55;96559.63;;;-4.57;91.78
74708;BME280;63360;50.104;8.074;2022-12-13T09:32:23;96570.31;;;-4.55;91.26
74708;BME280;63360;50.104;8.074;2022-12-13T09:34:50;96571.22;;;-4.61;91.37
74708;BME280;63360;50.104;8.074;2022-12-13T09:37:16;96562.41;;;-4.58;92.84
74708;BME280;63360;50.104;8.074;2022-12-13T09:39:48;96567.22;;;-4.57;93.58
74708;BME280;63360;50.104;8.074;2022-12-13T09:42:23;96573.41;;;-4.53;92.63
74708;BME280;63360;50.104;8.074;2022-12-13T09:45:05;96557.75;;;-4.61;91.13
74708;BME280;63360;50.104;8.074;2022-12-13T09:47:52;96573.53;;;-4.48;90.24
74708;BME280;63360;50.104;8.074;2022-12-13T09:50:33;96563.78;;;-4.39;94.41
74708;BME280;63360;50.104;8.074;2022-12-13T09:53:04;96559.47;;;-4.39;90.97
74708;BME280;63360;50.104;8.074;2022-12-13T09:55:48;96553.06;;;-4.41;90.48
74708;BME280;63360;50.104;8.074;2022-12-13T09:58:22;96554.72;;;-4.35;89.78
74708;BME280;63360;50.104;8.074;2022-12-13T10:00:52;96562.59;;;-4.20;91.20
74708;BME280;63360;50.104;8.074;2022-12-13T10:03:20;96555.94;;;-4.09;89.68
74708;BME280;63360;50.104;8.074;2022-12-13T10:06:12;96551.06;;;-3.99;89.01
74708;BME280;63360;50.104;8.074;2022-12-13T10:08:53;96542.44;;;-3.98;87.14
74708;BME280;63360;50.104;8.074;2022-12-13T10:11:24;96556.97;;;-3.94;87.18
74708;BME280;63360;50.104;8.074;2022-12-13T10:14:03;96557.22;;;-3.95;83.84
74708;BME280;63360;50.104;8.074;2022-12-13T10:19:19;96550.91;;;-3.93;85.49
74708;BME280;63360;50.104;8.074;2022-12-13T10:21:55;96546.63;;;-3.92;86.30
74708;BME280;63360;50.104;8.074;2022-12-13T10:24:30;96545.34;;;-3.78;85.91
74708;BME280;63360;50.104;8.074;2022-12-13T10:27:14;96546.03;;;-3.66;86.86
74708;BME280;63360;50.104;8.074;2022-12-13T10:32:21;96527.38;;;-3.72;83.73
74708;BME280;63360;50.104;8.074;2022-12-13T10:34:48;96533.09;;;-3.64;83.52
74708;BME280;63360;50.104;8.074;2022-12-13T10:37:27;96537.50;;;-3.60;85.62
74708;BME280;63360;50.104;8.074;2022-12-13T10:39:54;96530.25;;;-3.68;84.51
74708;BME280;63360;50.104;8.074;2022-12-13T10:42:21;96532.16;;;-3.75;84.83
74708;BME280;63360;50.104;8.074;2022-12-13T10:45:16;96523.78;;;-3.76;85.57
74708;BME280;63360;50.104;8.074;2022-12-13T10:47:49;96509.06;;;-3.74;82.93
74708;BME280;63360;50.104;8.074;2022-12-13T10:50:25;96506.06;;;-3.54;83.30
74708;BME280;63360;50.104;8.074;2022-12-13T10:52:53;96520.00;;;-3.40;84.12
74708;BME280;63360;50.104;8.074;2022-12-13T10:55:27;96517.31;;;-3.33;79.91
74708;BME280;63360;50.104;8.074;2022-12-13T10:57:57;96508.28;;;-3.24;79.94
74708;BME280;63360;50.104;8.074;2022-12-13T11:03:03;96514.44;;;-3.20;77.25
74708;BME280;63360;50.104;8.074;2022-12-13T11:05:32;96501.16;;;-3.06;75.83
74708;BME280;63360;50.104;8.074;2022-12-13T11:10:39;96493.66;;;-2.74;75.36
74708;BME280;63360;50.104;8.074;2022-12-13T11:13:07;96496.81;;;-2.45;77.28
74708;BME280;63360;50.104;8.074;2022-12-13T11:15:36;96486.59;;;-2.72;73.10
74708;BME280;63360;50.104;8.074;2022-12-13T11:18:05;96491.53;;;-2.60;74.27
74708;BME280;63360;50.104;8.074;2022-12-13T11:20:35;96488.56;;;-2.52;72.60
74708;BME280;63360;50.104;8.074;2022-12-13T11:23:17;96488.78;;;-2.32;73.63
74708;BME280;63360;50.104;8.074;2022-12-13T11:25:44;96504.50;;;-2.40;72.61
74708;BME280;63360;50.104;8.074;2022-12-13T11:28:30;96499.81;;;-2.48;72.80
74708;BME280;63360;50.104;8.074;2022-12-13T11:31:09;96500.28;;;-2.29;73.95
74708;BME280;63360;50.104;8.074;2022-12-13T11:36:29;96488.16;;;-2.17;71.84
74708;BME280;63360;50.104;8.074;2022-12-13T11:39:20;96487.16;;;-2.65;73.53
74708;BME280;63360;50.104;8.074;2022-12-13T11:50:37;96451.00;;;-2.88;77.44
74708;BME280;63360;50.104;8.074;2022-12-13T11:53:21;96464.19;;;-2.91;77.54
74708;BME280;63360;50.104;8.074;2022-12-13T11:55:58;96458.13;;;-2.90;76.14
74708;BME280;63360;50.104;8.074;2022-12-13T12:01:52;96441.41;;;-3.03;77.89
74708;BME280;63360;50.104;8.074;2022-12-13T12:04:22;96437.19;;;-2.92;75.40
74708;BME280;63360;50.104;8.074;2022-12-13T12:07:03;96435.16;;;-2.95;76.70
74708;BME280;63360;50.104;8.074;2022-12-13T12:09:58;96431.69;;;-3.06;76.80
74708;BME280;63360;50.104;8.074;2022-12-13T12:12:34;96413.38;;;-3.08;76.85
74708;BME280;63360;50.104;8.074;2022-12-13T12:17:42;96428.16;;;-3.05;76.25
74708;BME280;63360;50.104;8.074;2022-12-13T12:20:12;96422.13;;;-3.21;75.66
74708;BME280;63360;50.104;8.074;2022-12-13T12:26:31;96439.16;;;-3.21;76.91
74708;BME280;63360;50.104;8.074;2022-12-13T12:31:47;96437.44;;;-3.16;78.54
74708;BME280;63360;50.104;8.074;2022-12-13T12:34:27;96451.59;;;-3.25;77.96
74708;BME280;63360;50.104;8.074;2022-12-13T12:37:15;96438.50;;;-3.33;78.42
74708;BME280;63360;50.104;8.074;2022-12-13T12:43:04;96436.00;;;-3.28;79.22
74708;BME280;63360;50.104;8.074;2022-12-13T12:54:17;96418.72;;;-3.48;78.53
74708;BME280;63360;50.104;8.074;2022-12-13T12:59:58;96434.88;;;-3.54;79.29
74708;BME280;63360;50.104;8.074;2022-12-13T13:02:35;96426.44;;;-3.59;79.21
74708;BME280;63360;50.104;8.074;2022-12-13T13:08:02;96422.50;;;-3.67;82.18
74708;BME280;63360;50.104;8.074;2022-12-13T13:10:30;96420.91;;;-3.73;78.72
74708;BME280;63360;50.104;8.074;2022-12-13T13:12:57;96436.06;;;-3.61;80.49
74708;BME280;63360;50.104;8.074;2022-12-13T13:26:27;96415.19;;;-3.80;81.14
74708;BME280;63360;50.104;8.074;2022-12-13T13:34:29;96412.59;;;-3.69;81.73
74708;BME280;63360;50.104;8.074;2022-12-13T13:36:56;96399.81;;;-3.74;82.27
74708;BME280;63360;50.104;8.074;2022-12-13T13:47:14;96393.63;;;-3.61;81.26
74708;BME280;63360;50.104;8.074;2022-12-13T14:15:18;96416.34;;;-3.54;80.24
74708;BME280;63360;50.104;8.074;2022-12-13T14:20:51;96413.34;;;-3.51;
74708;BME280;63360;50.104;8.074;2022-12-13T14:23:49;96415.88;;;-3.51;80.91
74708;BME280;63360;50.104;8.074;2022-12-13T14:29:03;96412.91;;;-3.65;80.50
74708;BME280;63360;50.104;8.074;2022-12-13T14:31:41;96414.25;;;-3.57;81.12
74708;BME280;63360;50.104;8.074;2022-12-13T14:34:31;96406.56;;;-3.62;82.72
74708;BME280;63360;50.104;8.074;2022-12-13T14:37:01;96396.50;;;-3.74;81.54
74708;BME280;63360;50.104;8.074;2022-12-13T14:39:28;96396.50;;;-3.74;82.17
74708;BME280;63360;50.104;8.074;2022-12-13T14:41:57;96399.88;;;-3.69;82.41
74708;BME280;63360;50.104;8.074;2022-12-13T14:44:27;96405.81;;;-3.80;83.53
74708;BME280;63360;50.104;8.074;2022-12-13T14:47:05;96404.44;;;-3.87;83.64
74708;BME280;63360;50.104;8.074;2022-12-13T14:49:37;96402.81;;;-3.93;84.14
74708;BME280;63360;50.104;8.074;2022-12-13T14:52:13;96406.97;;;-3.87;83.99
74708;BME280;63360;50.104;8.074;2022-12-13T14:54:58;96411.28;;;-3.88;84.96
74708;BME280;63360;50.104;8.074;2022-12-13T14:57:27;96412.84;;;-3.87;84.63
74708;BME280;63360;50.104;8.074;2022-12-13T14:59:56;96407.28;;;-3.84;85.11
74708;BME280;63360;50.104;8.074;2022-12-13T15:02:25;96410.75;;;-3.90;83.79
74708;BME280;63360;50.104;8.074;2022-12-13T15:05:01;96396.88;;;-3.99;84.48
74708;BME280;63360;50.104;8.074;2022-12-13T15:07:35;96398.81;;;-4.06;85.58
74708;BME280;63360;50.104;8.074;2022-12-13T15:10:16;96388.97;;;-4.02;85.74
74708;BME280;63360;50.104;8.074;2022-12-13T15:12:44;96395.56;;;-4.01;85.52
74708;BME280;63360;50.104;8.074;2022-12-13T15:15:28;96389.03;;;-4.14;86.12
74708;BME280;63360;50.104;8.074;2022-12-13T15:20:39;96384.34;;;-4.05;86.36